Time;durP1;ratioP1;P1;durP2;ratioP2;P2;SDS_P1;SDS_P2;PMS_P1;PMS_P2;Temp;Humidity;BMP_temperature;BMP_pressure;BME280_temperature;BME280_humidity;BME280_pressure;Samples;Min_cycle;Max_cycle;Signal;HPM_P1;HPM_P2
2022/06/06 00:01:24;;;;;;;9.67;3.83;;;14.70;80.20;;;;;;5051131;28;46413;-62
2022/06/06 00:03:50;;;;;;;9.20;3.87;;;14.70;80.20;;;;;;5049633;28;46127;-62
2022/06/06 00:06:19;;;;;;;13.97;4.30;;;14.70;80.10;;;;;;5048991;28;46462;-63
2022/06/06 00:08:46;;;;;;;7.60;3.70;;;14.70;80.10;;;;;;5051334;28;46511;-63
2022/06/06 00:11:12;;;;;;;6.53;3.80;;;14.70;80.20;;;;;;5054658;28;46380;-63
2022/06/06 00:13:41;;;;;;;6.27;3.47;;;14.70;80.40;;;;;;5055762;28;46410;-62
2022/06/06 00:16:07;;;;;;;7.93;4.10;;;14.60;80.50;;;;;;5049111;28;46514;-63
2022/06/06 00:18:33;;;;;;;6.83;3.83;;;14.60;80.50;;;;;;5055613;28;46353;-63
2022/06/06 00:21:00;;;;;;;5.90;3.40;;;14.60;80.30;;;;;;5048455;28;46248;-62
2022/06/06 00:23:26;;;;;;;15.03;4.07;;;14.60;80.30;;;;;;5052379;28;46409;-63
2022/06/06 00:25:53;;;;;;;7.17;3.80;;;14.50;80.30;;;;;;5056145;28;46332;-63
2022/06/06 00:28:19;;;;;;;7.40;4.47;;;14.50;80.20;;;;;;5049609;28;46395;-63
2022/06/06 00:30:44;;;;;;;6.30;3.73;;;14.50;80.30;;;;;;5053103;28;46512;-63
2022/06/06 00:36:00;;;;;;;6.13;3.70;;;14.50;80.30;;;;;;5051152;28;46816;-63
2022/06/06 00:38:26;;;;;;;8.87;3.90;;;14.50;80.30;;;;;;5047231;28;46593;-62
2022/06/06 00:40:52;;;;;;;7.50;4.20;;;14.50;80.40;;;;;;5050044;28;45869;-63
2022/06/06 00:43:18;;;;;;;10.33;4.07;;;14.50;80.60;;;;;;5047288;28;46475;-63
2022/06/06 00:45:49;;;;;;;6.83;4.00;;;14.40;80.80;;;;;;5050807;28;46259;-63
2022/06/06 00:48:36;;;;;;;7.57;3.97;;;14.40;80.90;;;;;;5049060;28;46236;-62
2022/06/06 00:51:08;;;;;;;6.43;4.90;;;14.40;80.90;;;;;;5054151;28;45752;-63
2022/06/06 00:53:46;;;;;;;6.80;4.10;;;14.40;80.90;;;;;;5049824;28;46303;-62
2022/06/06 00:56:18;;;;;;;6.80;3.87;;;14.30;80.90;;;;;;5054142;28;46659;-63
2022/06/06 00:58:45;;;;;;;6.77;4.57;;;14.30;81.00;;;;;;5048396;28;46598;-63
2022/06/06 01:01:12;;;;;;;9.20;4.00;;;14.30;80.90;;;;;;5045312;28;46358;-62
2022/06/06 01:03:38;;;;;;;6.77;3.60;;;14.30;81.00;;;;;;5062946;28;45887;-62
2022/06/06 01:06:07;;;;;;;6.97;4.67;;;14.30;81.00;;;;;;5049365;28;46378;-63
2022/06/06 01:08:36;;;;;;;9.77;4.80;;;14.20;80.80;;;;;;5050614;28;46378;-63
2022/06/06 01:11:01;;;;;;;8.17;4.47;;;14.20;80.80;;;;;;5050271;28;46513;-63
2022/06/06 01:13:28;;;;;;;10.33;4.40;;;14.20;80.90;;;;;;5052341;28;46482;-63
2022/06/06 01:16:12;;;;;;;7.00;3.90;;;14.20;80.80;;;;;;5048654;28;46433;-62
2022/06/06 01:18:46;;;;;;;7.20;3.90;;;14.20;80.80;;;;;;5051081;28;46385;-63
2022/06/06 01:21:28;;;;;;;6.47;3.90;;;14.20;80.80;;;;;;5049903;28;45914;-62
2022/06/06 01:24:19;;;;;;;8.20;5.37;;;14.20;80.90;;;;;;5047485;28;46382;-62
2022/06/06 01:26:53;;;;;;;5.00;3.27;;;14.20;80.80;;;;;;5050219;28;47126;-62
2022/06/06 01:29:28;;;;;;;10.70;4.40;;;14.20;80.80;;;;;;5048087;28;46586;-62
2022/06/06 01:32:07;;;;;;;16.10;4.70;;;14.20;80.90;;;;;;5048107;28;46724;-62
2022/06/06 01:34:37;;;;;;;8.00;4.10;;;14.10;80.80;;;;;;5047146;28;46327;-63
2022/06/06 01:37:04;;;;;;;6.10;4.13;;;14.10;81.10;;;;;;5047472;28;46394;-62
2022/06/06 01:39:31;;;;;;;7.50;3.90;;;14.00;80.90;;;;;;5046536;28;46693;-63
2022/06/06 01:42:18;;;;;;;5.40;3.90;;;14.00;81.00;;;;;;5050246;28;46394;-62
2022/06/06 01:45:03;;;;;;;10.87;3.93;;;14.00;81.00;;;;;;5045977;28;46308;-62
2022/06/06 01:47:37;;;;;;;5.40;3.83;;;14.00;80.60;;;;;;5048895;28;47115;-62
2022/06/06 01:50:04;;;;;;;11.67;5.13;;;14.00;80.60;;;;;;5053494;28;46369;-62
2022/06/06 01:52:30;;;;;;;10.70;4.37;;;14.00;80.70;;;;;;5049716;28;46488;-62
2022/06/06 01:54:57;;;;;;;7.90;4.20;;;14.00;80.70;;;;;;5053843;28;46571;-63
2022/06/06 01:57:25;;;;;;;6.83;4.10;;;14.00;80.60;;;;;;5051521;28;46628;-62
2022/06/06 01:59:52;;;;;;;7.57;4.10;;;14.00;80.60;;;;;;5050308;28;46557;-62
2022/06/06 02:02:18;;;;;;;5.80;3.60;;;14.00;80.60;;;;;;5050595;28;46454;-63
2022/06/06 02:04:44;;;;;;;8.67;4.13;;;14.00;80.60;;;;;;5049581;28;46471;-62
2022/06/06 02:07:10;;;;;;;7.43;4.20;;;14.00;80.70;;;;;;5050056;28;46497;-63
2022/06/06 02:09:36;;;;;;;10.50;4.60;;;14.10;80.70;;;;;;5050211;28;46369;-62
2022/06/06 02:12:02;;;;;;;5.07;3.40;;;14.10;80.80;;;;;;5050292;28;46356;-62
2022/06/06 02:14:28;;;;;;;5.87;3.93;;;14.10;80.50;;;;;;5049897;28;46466;-62
2022/06/06 02:16:53;;;;;;;8.10;4.00;;;14.10;80.30;;;;;;5048928;28;46363;-62
2022/06/06 02:19:19;;;;;;;6.43;4.10;;;14.00;80.20;;;;;;5048644;28;46535;-61
2022/06/06 02:21:45;;;;;;;5.30;3.67;;;14.00;80.20;;;;;;5050644;28;46618;-62
2022/06/06 02:24:11;;;;;;;5.53;3.70;;;14.00;80.20;;;;;;5046082;28;46432;-63
2022/06/06 02:26:37;;;;;;;7.97;4.27;;;14.00;80.30;;;;;;5050309;28;46490;-62
2022/06/06 02:29:05;;;;;;;7.70;4.10;;;13.90;80.50;;;;;;5044411;28;46263;-63
2022/06/06 02:31:37;;;;;;;7.20;4.23;;;13.90;80.50;;;;;;5065715;28;46471;-63
2022/06/06 02:34:04;;;;;;;6.07;4.00;;;13.90;80.50;;;;;;5048093;28;46641;-64
2022/06/06 02:36:30;;;;;;;5.63;3.77;;;13.80;80.50;;;;;;5049290;28;46911;-62
2022/06/06 02:38:55;;;;;;;9.23;4.33;;;13.80;80.50;;;;;;5052638;28;46343;-63
2022/06/06 02:41:22;;;;;;;9.60;4.00;;;13.70;80.40;;;;;;5051237;28;46500;-62
2022/06/06 02:43:48;;;;;;;8.60;4.33;;;13.70;80.40;;;;;;5054104;28;46449;-62
2022/06/06 02:46:14;;;;;;;7.97;4.10;;;13.60;80.30;;;;;;5054409;28;46510;-62
2022/06/06 02:48:39;;;;;;;12.80;4.37;;;13.50;80.40;;;;;;5055410;28;46566;-62
2022/06/06 02:51:05;;;;;;;6.40;3.90;;;13.40;80.90;;;;;;5054545;28;46386;-62
2022/06/06 02:53:32;;;;;;;10.93;4.30;;;13.40;81.10;;;;;;5054883;28;46423;-62
2022/06/06 02:55:58;;;;;;;7.17;4.07;;;13.40;81.00;;;;;;5052816;28;47036;-62
2022/06/06 02:58:25;;;;;;;11.47;4.13;;;13.40;80.80;;;;;;5052713;28;46301;-62
2022/06/06 03:01:07;;;;;;;10.40;3.93;;;13.40;80.70;;;;;;5053062;28;46431;-62
2022/06/06 03:03:33;;;;;;;5.73;4.03;;;13.40;80.80;;;;;;5051572;28;46406;-62
2022/06/06 03:06:05;;;;;;;5.23;3.33;;;13.30;80.50;;;;;;5053814;28;48219;-62
2022/06/06 03:09:08;;;;;;;7.80;3.97;;;13.30;80.10;;;;;;5050175;28;46381;-63
2022/06/06 03:12:21;;;;;;;13.57;4.60;;;13.30;80.00;;;;;;5053359;28;46489;-62
2022/06/06 03:14:49;;;;;;;13.43;4.97;;;13.30;80.00;;;;;;5041268;28;46502;-62
2022/06/06 03:20:49;;;;;;;9.50;5.27;;;13.30;80.00;;;;;;5048656;28;46473;-62
2022/06/06 03:23:23;;;;;;;10.83;5.50;;;13.40;80.10;;;;;;5054481;28;45786;-63
2022/06/06 03:26:12;;;;;;;9.73;5.93;;;13.40;80.10;;;;;;5051262;28;46444;-62
2022/06/06 03:28:44;;;;;;;8.30;4.53;;;13.30;80.00;;;;;;5049037;28;46287;-62
2022/06/06 03:31:37;;;;;;;11.10;5.40;;;13.40;80.10;;;;;;5052737;28;46516;-63
2022/06/06 03:34:08;;;;;;;9.10;5.07;;;13.40;80.20;;;;;;5050085;28;46436;-63
2022/06/06 03:36:46;;;;;;;9.60;4.83;;;13.40;80.10;;;;;;5052149;28;46424;-62
2022/06/06 03:39:29;;;;;;;8.70;5.13;;;13.40;80.10;;;;;;5050456;28;47116;-62
2022/06/06 03:42:34;;;;;;;14.27;4.43;;;13.40;80.20;;;;;;5059514;28;46362;-62
2022/06/06 03:45:34;;;;;;;10.70;5.00;;;13.50;80.20;;;;;;5049833;28;46515;-64
2022/06/06 03:48:22;;;;;;;6.00;4.47;;;13.50;79.80;;;;;;5051887;28;46272;-63
2022/06/06 03:51:10;;;;;;;11.13;4.10;;;13.60;79.40;;;;;;5064489;28;46613;-63
2022/06/06 03:53:51;;;;;;;8.47;4.13;;;13.80;78.90;;;;;;5051958;28;46473;-62
2022/06/06 03:56:46;;;;;;;14.23;4.77;;;13.90;78.10;;;;;;5049242;28;45977;-62
2022/06/06 03:59:14;;;;;;;6.50;4.00;;;14.20;77.70;;;;;;5048128;28;46361;-63
2022/06/06 04:01:41;;;;;;;5.73;3.63;;;14.40;77.40;;;;;;5053872;28;46521;-62
2022/06/06 04:04:07;;;;;;;12.10;4.00;;;14.50;77.10;;;;;;5050984;28;46520;-61
2022/06/06 04:06:34;;;;;;;6.53;3.60;;;14.60;77.20;;;;;;5058414;28;45918;-62
2022/06/06 04:09:00;;;;;;;9.17;3.70;;;14.60;77.10;;;;;;5052341;28;46456;-62
2022/06/06 04:11:29;;;;;;;5.57;4.17;;;14.70;77.20;;;;;;5048419;28;46584;-62
2022/06/06 04:14:12;;;;;;;5.40;3.60;;;14.70;77.10;;;;;;5049839;28;46412;-62
2022/06/06 04:16:55;;;;;;;5.60;3.60;;;14.80;77.30;;;;;;5049740;28;46376;-62
2022/06/06 04:19:28;;;;;;;4.90;3.17;;;14.90;77.00;;;;;;5065949;28;45897;-62
2022/06/06 04:22:14;;;;;;;8.53;3.60;;;15.00;76.60;;;;;;5046918;28;47258;-62
2022/06/06 04:24:43;;;;;;;8.97;3.73;;;15.20;76.40;;;;;;5047910;28;46347;-62
2022/06/06 04:27:23;;;;;;;9.63;3.50;;;15.30;76.20;;;;;;5048571;28;46352;-61
2022/06/06 04:30:01;;;;;;;8.17;3.50;;;15.40;75.90;;;;;;5046212;28;46646;-61
2022/06/06 04:32:49;;;;;;;7.63;3.50;;;15.40;75.90;;;;;;5046440;28;47160;-62
2022/06/06 04:35:36;;;;;;;5.30;3.40;;;15.50;75.70;;;;;;5049233;28;46484;-63
2022/06/06 04:38:17;;;;;;;5.07;3.27;;;15.60;75.40;;;;;;5045774;28;46451;-63
2022/06/06 04:40:51;;;;;;;10.17;4.23;;;15.70;75.20;;;;;;5045408;28;46430;-62
2022/06/06 04:43:51;;;;;;;6.93;3.40;;;16.10;74.10;;;;;;5048050;28;46706;-63
2022/06/06 04:46:19;;;;;;;4.17;2.70;;;17.80;71.70;;;;;;5050001;28;46463;-63
2022/06/06 04:48:46;;;;;;;5.70;2.40;;;19.60;69.00;;;;;;5049483;28;46496;-62
2022/06/06 04:51:17;;;;;;;5.17;2.10;;;20.80;64.60;;;;;;5050683;28;46822;-62
2022/06/06 04:53:46;;;;;;;5.30;2.50;;;21.80;62.40;;;;;;5051722;28;47060;-63
2022/06/06 04:56:15;;;;;;;6.40;1.93;;;23.00;58.70;;;;;;5050960;28;46377;-63
2022/06/06 04:58:43;;;;;;;5.23;2.27;;;23.60;56.10;;;;;;5049877;28;46386;-63
2022/06/06 05:01:10;;;;;;;5.50;1.97;;;24.30;54.50;;;;;;5052358;28;46423;-62
2022/06/06 05:03:35;;;;;;;6.20;2.37;;;25.10;52.30;;;;;;5053329;28;47854;-63
2022/06/06 05:06:07;;;;;;;4.30;1.90;;;25.40;51.00;;;;;;5055372;28;46306;-63
2022/06/06 05:09:09;;;;;;;4.03;1.80;;;25.80;49.40;;;;;;5052601;28;46276;-64
2022/06/06 05:11:53;;;;;;;5.10;2.07;;;26.60;45.60;;;;;;5051760;28;46426;-63
2022/06/06 05:14:18;;;;;;;6.20;2.57;;;27.20;44.10;;;;;;5052251;28;47132;-61
2022/06/06 05:16:51;;;;;;;5.63;2.20;;;27.80;41.10;;;;;;5050432;28;46302;-62
2022/06/06 05:19:44;;;;;;;3.20;1.80;;;28.00;39.90;;;;;;5050049;28;46568;-63
2022/06/06 05:22:25;;;;;;;6.27;2.10;;;28.20;39.90;;;;;;5051854;28;46347;-62
2022/06/06 05:25:12;;;;;;;4.40;2.10;;;28.60;36.50;;;;;;5053460;28;46453;-61
2022/06/06 05:27:46;;;;;;;6.13;2.07;;;29.10;33.50;;;;;;5050137;28;46441;-62
2022/06/06 05:30:31;;;;;;;3.50;2.07;;;29.10;32.40;;;;;;5049276;28;46410;-62
2022/06/06 05:33:24;;;;;;;3.27;2.13;;;29.10;30.30;;;;;;5046132;28;46520;-63
2022/06/06 05:36:16;;;;;;;3.47;1.83;;;29.20;29.70;;;;;;5049808;28;46421;-62
2022/06/06 05:39:03;;;;;;;7.47;2.00;;;29.30;29.00;;;;;;5045613;28;46377;-62
2022/06/06 05:41:47;;;;;;;6.40;2.20;;;29.50;28.90;;;;;;5049666;28;46373;-63
2022/06/06 05:44:20;;;;;;;3.77;2.00;;;29.30;28.30;;;;;;5046769;28;46309;-61
2022/06/06 05:47:20;;;;;;;7.90;1.97;;;29.10;28.20;;;;;;5048763;28;46979;-62
2022/06/06 05:49:55;;;;;;;3.90;2.20;;;29.40;27.10;;;;;;5045498;28;46760;-60
2022/06/06 05:52:42;;;;;;;3.40;1.80;;;29.20;28.20;;;;;;5053920;28;46436;-60
2022/06/06 05:55:24;;;;;;;4.33;2.10;;;27.70;30.20;;;;;;5049662;28;45879;-62
2022/06/06 05:58:02;;;;;;;3.93;2.10;;;26.50;34.50;;;;;;5051818;28;47361;-61
2022/06/06 06:00:56;;;;;;;4.93;2.07;;;25.50;38.90;;;;;;5049442;28;46417;-62
2022/06/06 06:03:32;;;;;;;8.00;1.83;;;24.90;39.80;;;;;;5041439;28;46701;-61
2022/06/06 06:06:28;;;;;;;3.33;1.70;;;24.40;40.70;;;;;;5051917;28;46436;-60
2022/06/06 06:09:16;;;;;;;3.90;1.80;;;24.00;40.90;;;;;;5047663;28;47856;-61
2022/06/06 06:11:56;;;;;;;3.80;1.93;;;23.80;41.40;;;;;;5046993;28;46214;-61
2022/06/06 06:14:42;;;;;;;6.40;2.07;;;23.50;41.60;;;;;;5048911;28;46938;-62
2022/06/06 06:17:10;;;;;;;5.87;2.20;;;23.30;41.60;;;;;;5051821;28;46463;-62
2022/06/06 06:19:43;;;;;;;3.80;2.37;;;23.40;41.50;;;;;;5051657;28;47440;-61
2022/06/06 06:22:10;;;;;;;3.50;2.00;;;23.60;41.10;;;;;;5055604;28;46369;-61
2022/06/06 06:24:40;;;;;;;7.53;2.07;;;23.80;40.40;;;;;;5052983;28;45708;-61
2022/06/06 06:27:06;;;;;;;3.63;2.07;;;23.80;39.50;;;;;;5051573;28;46494;-61
2022/06/06 06:29:32;;;;;;;3.40;1.73;;;23.80;39.30;;;;;;5052864;28;46504;-62
2022/06/06 06:32:13;;;;;;;8.30;2.07;;;23.60;39.40;;;;;;5052414;28;46391;-62
2022/06/06 06:35:15;;;;;;;6.50;2.40;;;23.50;39.40;;;;;;5054326;28;46448;-61
2022/06/06 06:37:49;;;;;;;5.00;2.63;;;23.40;39.70;;;;;;5054762;28;46825;-62
2022/06/06 06:40:39;;;;;;;6.53;2.37;;;23.20;39.80;;;;;;5052651;28;46359;-62
2022/06/06 06:43:23;;;;;;;5.30;2.37;;;23.10;40.10;;;;;;5052250;28;46248;-61
2022/06/06 06:45:57;;;;;;;5.60;2.20;;;23.10;39.80;;;;;;5051665;28;46507;-63
2022/06/06 06:48:38;;;;;;;5.10;2.00;;;23.10;39.60;;;;;;5049321;28;46433;-63
2022/06/06 06:51:18;;;;;;;5.23;2.33;;;23.20;39.40;;;;;;5054441;28;46322;-64
2022/06/06 06:53:59;;;;;;;5.23;2.60;;;23.60;38.70;;;;;;5056614;28;46728;-62
2022/06/06 06:56:34;;;;;;;3.60;2.20;;;23.90;37.60;;;;;;5051026;28;45928;-62
2022/06/06 06:59:24;;;;;;;6.00;2.30;;;24.10;37.80;;;;;;5056325;28;46438;-62
2022/06/06 07:11:18;;;;;;;4.40;2.13;;;24.50;38.20;;;;;;5053196;28;45815;-63
2022/06/06 07:14:06;;;;;;;9.13;2.37;;;24.40;38.10;;;;;;5044118;28;47393;-63
2022/06/06 07:16:39;;;;;;;6.83;3.00;;;24.50;37.20;;;;;;5054085;28;46442;-62
2022/06/06 07:19:10;;;;;;;4.30;2.30;;;24.40;37.10;;;;;;5046596;28;46442;-62
2022/06/06 07:21:38;;;;;;;5.63;2.33;;;24.50;37.00;;;;;;5050002;28;46594;-62
2022/06/06 07:24:07;;;;;;;6.23;2.40;;;24.60;37.20;;;;;;5051235;28;46272;-62
2022/06/06 07:26:37;;;;;;;10.33;2.50;;;24.90;35.80;;;;;;5052414;28;46349;-63
2022/06/06 07:29:05;;;;;;;5.13;2.60;;;25.10;35.20;;;;;;5052661;28;46378;-61
2022/06/06 07:31:51;;;;;;;5.10;2.20;;;25.20;34.90;;;;;;5053757;28;46469;-61
2022/06/06 07:34:22;;;;;;;3.90;2.50;;;25.20;34.30;;;;;;5044819;28;46331;-62
2022/06/06 07:37:07;;;;;;;4.10;2.40;;;25.20;34.40;;;;;;5057653;28;46505;-63
2022/06/06 07:39:58;;;;;;;3.60;2.17;;;25.00;34.70;;;;;;5050039;28;46473;-62
2022/06/06 07:42:50;;;;;;;4.07;2.37;;;24.90;35.50;;;;;;5054045;28;46392;-63
2022/06/06 07:45:23;;;;;;;5.93;2.60;;;24.80;35.60;;;;;;5051476;28;46054;-63
2022/06/06 07:48:12;;;;;;;8.03;2.87;;;24.80;35.70;;;;;;5054134;28;46478;-61
2022/06/06 07:51:13;;;;;;;7.67;2.90;;;24.70;35.90;;;;;;5049242;28;46402;-63
2022/06/06 07:54:04;;;;;;;3.87;2.43;;;24.80;35.60;;;;;;5053926;28;46546;-62
2022/06/06 07:56:45;;;;;;;4.20;2.30;;;25.00;35.30;;;;;;5046319;28;46429;-63
2022/06/06 07:59:26;;;;;;;5.70;2.77;;;25.10;35.10;;;;;;5049138;28;46568;-63
2022/06/06 08:02:31;;;;;;;4.67;2.53;;;25.40;34.90;;;;;;5053528;28;46192;-62
2022/06/06 08:05:34;;;;;;;5.43;2.60;;;25.30;34.80;;;;;;5051581;28;46464;-62
2022/06/06 08:08:08;;;;;;;5.07;2.30;;;25.20;35.50;;;;;;5050119;28;47249;-63
2022/06/06 08:10:48;;;;;;;4.70;2.70;;;25.30;36.10;;;;;;5045370;28;46438;-63
2022/06/06 08:13:56;;;;;;;9.53;2.60;;;25.60;35.80;;;;;;5049553;28;46561;-63
2022/06/06 08:16:41;;;;;;;4.70;2.47;;;26.20;34.20;;;;;;5047601;28;47420;-62
2022/06/06 08:19:14;;;;;;;4.83;2.43;;;26.60;33.40;;;;;;5048026;28;47158;-60
2022/06/06 08:21:46;;;;;;;5.10;2.60;;;26.80;32.70;;;;;;5055373;28;45813;-62
2022/06/06 08:24:21;;;;;;;8.40;2.57;;;27.20;31.60;;;;;;5052045;28;46443;-61
2022/06/06 08:26:50;;;;;;;4.67;1.97;;;26.80;32.20;;;;;;5051129;28;46444;-62
2022/06/06 08:29:17;;;;;;;4.70;2.47;;;26.40;33.10;;;;;;5049497;28;47160;-62
2022/06/06 08:31:43;;;;;;;7.53;2.90;;;26.30;33.10;;;;;;5049007;28;46322;-62
2022/06/06 08:34:08;;;;;;;3.77;2.20;;;26.20;33.70;;;;;;5054498;28;46482;-62
2022/06/06 08:36:34;;;;;;;4.67;2.47;;;26.30;33.60;;;;;;5053730;28;46440;-62
2022/06/06 08:39:36;;;;;;;3.70;2.40;;;25.80;33.50;;;;;;5049900;28;46370;-61
2022/06/06 08:42:09;;;;;;;5.83;2.50;;;25.00;34.40;;;;;;5044707;28;46382;-61
2022/06/06 08:44:59;;;;;;;4.30;2.37;;;24.40;35.70;;;;;;5054889;28;46284;-62
2022/06/06 08:47:29;;;;;;;4.80;2.83;;;24.00;36.60;;;;;;5049416;28;46857;-63
2022/06/06 08:53:41;;;;;;;7.93;2.50;;;24.10;37.80;;;;;;5050719;28;46467;-62
2022/06/06 08:56:21;;;;;;;6.50;2.87;;;24.70;35.70;;;;;;5053293;28;46496;-63
2022/06/06 08:59:13;;;;;;;6.03;2.40;;;25.20;34.90;;;;;;5056135;28;45874;-61
2022/06/06 09:01:55;;;;;;;4.37;2.53;;;25.60;34.40;;;;;;5050662;28;47177;-63
2022/06/06 09:04:48;;;;;;;6.03;2.43;;;25.80;33.80;;;;;;5050398;28;46361;-62
2022/06/06 09:07:46;;;;;;;4.20;2.23;;;26.10;32.70;;;;;;5051532;28;46693;-63
2022/06/06 09:10:33;;;;;;;10.13;3.60;;;26.10;32.60;;;;;;5048387;28;46319;-64
2022/06/06 09:12:59;;;;;;;9.00;2.60;;;25.80;32.70;;;;;;5048725;28;47196;-63
2022/06/06 09:15:24;;;;;;;3.83;2.40;;;25.80;33.80;;;;;;5047466;28;46384;-62
2022/06/06 09:18:02;;;;;;;4.87;2.30;;;25.30;34.80;;;;;;5054972;28;46758;-61
2022/06/06 09:20:42;;;;;;;7.40;2.70;;;24.90;35.50;;;;;;5055112;28;46381;-63
2022/06/06 09:23:23;;;;;;;6.03;2.53;;;24.70;36.00;;;;;;5051088;28;46407;-62
2022/06/06 09:25:52;;;;;;;8.20;2.53;;;24.80;36.30;;;;;;5053062;28;46479;-62
2022/06/06 09:28:26;;;;;;;12.53;2.93;;;24.60;36.40;;;;;;5053239;28;46354;-61
2022/06/06 09:31:26;;;;;;;5.37;2.60;;;24.10;37.10;;;;;;5048403;28;46460;-62
2022/06/06 09:34:25;;;;;;;6.23;2.57;;;23.80;37.50;;;;;;5050148;28;46421;-62
2022/06/06 09:37:06;;;;;;;9.13;2.70;;;24.20;37.30;;;;;;5049261;28;46282;-61
2022/06/06 09:39:34;;;;;;;7.27;2.73;;;24.70;36.20;;;;;;5049383;28;46234;-61
2022/06/06 09:42:05;;;;;;;5.50;2.40;;;25.40;34.90;;;;;;5047178;28;46323;-61
2022/06/06 09:45:08;;;;;;;4.10;2.07;;;25.80;33.80;;;;;;5047570;28;46447;-62
2022/06/06 09:48:02;;;;;;;6.83;2.13;;;26.40;33.10;;;;;;5035208;28;46403;-62
2022/06/06 09:50:49;;;;;;;4.63;2.43;;;26.80;32.10;;;;;;5046452;28;46289;-62
2022/06/06 09:53:14;;;;;;;6.60;2.53;;;26.60;32.20;;;;;;5050608;28;46507;-60
2022/06/06 09:59:03;;;;;;;10.60;2.43;;;26.40;32.90;;;;;;5051646;28;46461;-60
2022/06/06 10:02:06;;;;;;;3.97;2.47;;;26.50;32.70;;;;;;5050565;28;46430;-61
2022/06/06 10:04:53;;;;;;;6.20;2.43;;;26.20;33.50;;;;;;5052919;28;46550;-60
2022/06/06 10:07:19;;;;;;;6.23;2.70;;;25.90;33.50;;;;;;5051439;28;47018;-61
2022/06/06 10:10:23;;;;;;;11.47;2.30;;;25.70;33.80;;;;;;5053211;28;46534;-61
2022/06/06 10:13:06;;;;;;;5.63;2.23;;;25.70;33.30;;;;;;5046409;28;45867;-62
2022/06/06 10:15:47;;;;;;;5.60;2.63;;;25.40;34.00;;;;;;5054841;28;46445;-61
2022/06/06 10:18:25;;;;;;;4.93;2.60;;;25.00;35.00;;;;;;5052425;28;46474;-60
2022/06/06 10:21:08;;;;;;;5.40;2.60;;;24.80;35.70;;;;;;5054161;28;46388;-62
2022/06/06 10:23:48;;;;;;;9.70;3.13;;;24.60;36.10;;;;;;5054316;28;46401;-60
2022/06/06 10:26:32;;;;;;;5.40;2.40;;;24.50;36.50;;;;;;5050768;28;46400;-61
2022/06/06 10:29:07;;;;;;;6.90;2.67;;;24.60;36.30;;;;;;5052618;28;46370;-60
2022/06/06 10:31:48;;;;;;;7.23;2.70;;;24.90;35.90;;;;;;5057124;28;46672;-60
2022/06/06 10:34:36;;;;;;;5.37;3.17;;;25.20;35.30;;;;;;5052647;28;46392;-61
2022/06/06 10:37:16;;;;;;;3.77;2.47;;;25.30;34.90;;;;;;5053610;28;46424;-61
2022/06/06 10:40:03;;;;;;;5.53;2.67;;;25.40;35.10;;;;;;5052572;28;46368;-61
2022/06/06 10:42:51;;;;;;;4.20;2.60;;;25.60;35.00;;;;;;5051711;28;46330;-61
2022/06/06 10:45:20;;;;;;;5.50;2.47;;;26.30;34.50;;;;;;5051865;28;46382;-60
2022/06/06 10:48:07;;;;;;;8.00;2.57;;;26.40;34.00;;;;;;5050463;28;46555;-61
2022/06/06 10:54:11;;;;;;;5.03;2.50;;;26.40;34.30;;;;;;5053802;28;46354;-62
2022/06/06 10:56:49;;;;;;;4.20;2.30;;;26.50;34.60;;;;;;5054101;28;46285;-63
2022/06/06 10:59:20;;;;;;;5.87;2.40;;;26.50;34.60;;;;;;5051100;28;46698;-61
2022/06/06 11:02:24;;;;;;;7.40;2.70;;;26.50;35.00;;;;;;5052623;28;46415;-61
2022/06/06 11:05:22;;;;;;;4.50;2.67;;;26.50;34.60;;;;;;5048265;28;45915;-62
2022/06/06 11:08:12;;;;;;;5.63;2.87;;;26.50;34.50;;;;;;5051223;28;46173;-62
2022/06/06 11:11:14;;;;;;;5.70;2.57;;;26.80;33.40;;;;;;5045311;28;46734;-61
2022/06/06 11:14:05;;;;;;;6.00;2.57;;;27.20;32.90;;;;;;5049613;28;47320;-61
2022/06/06 11:16:37;;;;;;;6.70;2.77;;;27.00;31.40;;;;;;5046680;28;46373;-62
2022/06/06 11:19:33;;;;;;;5.33;2.57;;;26.80;32.40;;;;;;5054438;28;46262;-62
2022/06/06 11:22:25;;;;;;;5.10;2.60;;;26.70;32.50;;;;;;5053623;28;46467;-62
2022/06/06 11:25:14;;;;;;;4.43;2.57;;;26.60;32.50;;;;;;5048785;28;47179;-62
2022/06/06 11:28:17;;;;;;;4.13;2.60;;;26.50;33.50;;;;;;5047722;28;46776;-62
2022/06/06 11:31:09;;;;;;;3.47;1.87;;;26.60;32.70;;;;;;5050527;28;46563;-61
2022/06/06 11:34:03;;;;;;;5.60;2.30;;;26.40;32.20;;;;;;5055021;28;46485;-61
2022/06/06 11:36:53;;;;;;;6.63;2.73;;;26.50;32.10;;;;;;5056973;28;46470;-62
2022/06/06 11:39:31;;;;;;;5.93;2.10;;;26.70;31.40;;;;;;5051782;28;46456;-61
2022/06/06 11:42:16;;;;;;;8.43;1.87;;;26.80;31.00;;;;;;5052930;28;46162;-61
2022/06/06 11:44:53;;;;;;;4.93;2.63;;;26.60;30.50;;;;;;5053010;28;45831;-61
2022/06/06 11:47:45;;;;;;;4.93;2.30;;;26.30;30.20;;;;;;5050203;28;46274;-62
2022/06/06 11:50:43;;;;;;;7.33;2.77;;;26.20;31.00;;;;;;5054104;28;46459;-61
2022/06/06 11:53:46;;;;;;;5.73;2.93;;;26.30;31.50;;;;;;5051875;28;46414;-63
2022/06/06 11:56:43;;;;;;;5.77;2.00;;;26.30;31.10;;;;;;5057237;28;46436;-62
2022/06/06 11:59:17;;;;;;;4.80;2.27;;;25.80;31.60;;;;;;5049124;28;46404;-61
2022/06/06 12:01:51;;;;;;;5.73;2.10;;;25.60;32.00;;;;;;5055205;28;46248;-62
2022/06/06 12:05:08;;;;;;;5.60;2.40;;;25.60;32.10;;;;;;5046536;28;46401;-61
2022/06/06 12:07:55;;;;;;;7.50;2.10;;;25.60;32.30;;;;;;5054497;28;46297;-61
2022/06/06 12:10:26;;;;;;;3.97;2.20;;;25.60;32.30;;;;;;5047194;28;47151;-62
2022/06/06 12:12:57;;;;;;;6.40;2.50;;;25.90;32.20;;;;;;5053624;28;46586;-63
2022/06/06 12:15:54;;;;;;;4.17;2.20;;;25.90;32.00;;;;;;5049214;28;46107;-62
2022/06/06 12:18:29;;;;;;;4.77;2.10;;;25.80;31.30;;;;;;5052481;28;45886;-61
2022/06/06 12:21:10;;;;;;;7.17;2.37;;;25.80;32.20;;;;;;5049704;28;46489;-62
2022/06/06 12:23:56;;;;;;;4.73;2.20;;;25.80;32.10;;;;;;5053350;28;46540;-62
2022/06/06 12:26:38;;;;;;;5.53;2.40;;;26.10;30.20;;;;;;5050915;28;46440;-62
2022/06/06 12:29:26;;;;;;;3.73;2.30;;;26.00;30.30;;;;;;5048966;28;46314;-62
2022/06/06 12:32:16;;;;;;;3.60;2.00;;;26.10;29.30;;;;;;5054238;28;46458;-63
2022/06/06 12:35:26;;;;;;;4.57;1.93;;;26.10;29.70;;;;;;5052422;28;46424;-61
2022/06/06 12:38:11;;;;;;;8.37;2.20;;;26.20;29.70;;;;;;5035386;28;46460;-62
2022/06/06 12:40:54;;;;;;;4.30;2.20;;;26.20;29.40;;;;;;5052591;28;46943;-63
2022/06/06 12:43:38;;;;;;;6.17;2.40;;;26.50;29.60;;;;;;5049812;28;47075;-62
2022/06/06 12:46:18;;;;;;;5.03;2.10;;;26.50;29.40;;;;;;5050841;28;46363;-63
2022/06/06 12:48:52;;;;;;;5.83;2.07;;;26.40;28.80;;;;;;5051771;28;46471;-63
2022/06/06 12:51:35;;;;;;;3.10;2.10;;;26.50;29.00;;;;;;5049927;28;46397;-62
2022/06/06 12:54:16;;;;;;;3.73;2.23;;;26.60;28.20;;;;;;5048745;28;48018;-62
2022/06/06 12:57:03;;;;;;;6.03;2.50;;;26.70;28.20;;;;;;5049688;28;46212;-62
2022/06/06 12:59:55;;;;;;;3.83;2.10;;;26.80;27.90;;;;;;5051112;28;46352;-63
2022/06/06 13:02:45;;;;;;;10.70;2.53;;;26.90;27.90;;;;;;5046388;28;46326;-60
2022/06/06 13:05:35;;;;;;;6.93;2.63;;;27.00;28.00;;;;;;5049103;28;46476;-60
2022/06/06 13:08:06;;;;;;;4.33;2.00;;;27.30;27.20;;;;;;5049546;28;46544;-61
2022/06/06 13:10:56;;;;;;;3.13;1.77;;;27.60;27.40;;;;;;5051157;28;46746;-59
2022/06/06 13:14:13;;;;;;;4.40;2.17;;;27.60;27.40;;;;;;5051733;28;46505;-60
2022/06/06 13:16:57;;;;;;;8.27;2.43;;;27.40;26.90;;;;;;5046728;28;47043;-59
2022/06/06 13:19:55;;;;;;;4.77;1.83;;;27.30;27.20;;;;;;5048383;28;46372;-61
2022/06/06 13:22:36;;;;;;;5.53;2.37;;;27.10;27.10;;;;;;5048254;28;46535;-61
2022/06/06 13:25:37;;;;;;;3.93;2.07;;;27.10;27.10;;;;;;5043744;28;46405;-59
2022/06/06 13:28:11;;;;;;;3.57;1.93;;;27.00;27.00;;;;;;5028432;28;46474;-60
2022/06/06 13:30:48;;;;;;;3.30;1.80;;;27.10;27.10;;;;;;5043495;28;46468;-60
2022/06/06 13:33:34;;;;;;;5.37;2.10;;;27.10;26.80;;;;;;5046971;28;46396;-59
2022/06/06 13:36:28;;;;;;;4.00;1.90;;;27.30;26.50;;;;;;5048396;28;46470;-60
2022/06/06 13:39:02;;;;;;;7.10;2.37;;;27.40;26.30;;;;;;5047669;28;46514;-60
2022/06/06 13:42:03;;;;;;;5.63;2.30;;;27.40;26.00;;;;;;5049481;28;46492;-60
2022/06/06 13:44:37;;;;;;;5.93;2.10;;;27.60;26.30;;;;;;5045077;28;46968;-59
2022/06/06 13:47:22;;;;;;;3.40;1.83;;;27.90;25.40;;;;;;5053721;28;46584;-60
2022/06/06 13:50:25;;;;;;;4.00;2.07;;;28.10;25.10;;;;;;5046543;28;46349;-61
2022/06/06 13:53:23;;;;;;;4.80;2.40;;;28.30;24.20;;;;;;5053048;28;46302;-60
2022/06/06 13:56:26;;;;;;;4.27;2.10;;;28.60;23.40;;;;;;5052070;28;46658;-60
2022/06/06 13:59:10;;;;;;;7.30;2.47;;;28.40;24.00;;;;;;5046557;28;46434;-61
2022/06/06 14:01:52;;;;;;;5.87;2.10;;;28.00;24.60;;;;;;5049570;28;46405;-60
2022/06/06 14:04:42;;;;;;;5.20;2.20;;;27.80;25.90;;;;;;5048418;28;46401;-60
2022/06/06 14:07:35;;;;;;;4.10;1.97;;;27.90;26.00;;;;;;5048933;28;46355;-61
2022/06/06 14:10:20;;;;;;;6.97;2.33;;;27.50;26.20;;;;;;5051900;28;46489;-61
2022/06/06 14:12:48;;;;;;;4.23;2.00;;;27.10;27.10;;;;;;5044846;28;47596;-60
2022/06/06 14:15:17;;;;;;;8.50;2.03;;;27.30;27.20;;;;;;5052023;28;46398;-61